createdAt,value
2023-01-11T00:01:10.645Z,79.57
2023-01-11T00:04:13.533Z,79.25
2023-01-11T00:07:17.986Z,78.92
2023-01-11T00:10:20.848Z,79.56
2023-01-11T00:13:25.991Z,79.52
2023-01-11T00:16:28.615Z,78.82
2023-01-11T00:19:31.316Z,79.47
2023-01-11T00:22:33.837Z,78.81
2023-01-11T00:25:37.108Z,79.68
2023-01-11T00:28:41.280Z,79.29
2023-01-11T00:31:43.980Z,79.70
2023-01-11T00:34:46.627Z,79.86
2023-01-11T00:37:49.269Z,79.71
2023-01-11T00:40:51.839Z,79.19
2023-01-11T00:44:13.040Z,79.52
2023-01-11T00:47:35.759Z,79.49
2023-01-11T00:50:39.736Z,78.96
2023-01-11T00:53:48.536Z,79.69
2023-01-11T00:56:51.140Z,79.20
2023-01-11T00:59:53.653Z,79.90
2023-01-11T01:02:56.729Z,79.53
2023-01-11T01:05:59.280Z,78.95
2023-01-11T01:09:01.887Z,79.84
2023-01-11T01:12:06.953Z,78.79
2023-01-11T01:15:10.539Z,78.66
2023-01-11T01:18:16.198Z,77.97
2023-01-11T01:21:18.884Z,78.00
2023-01-11T01:24:24.466Z,77.74
2023-01-11T01:27:29.843Z,76.72
2023-01-11T01:30:33.799Z,77.37
2023-01-11T01:33:36.750Z,76.67
2023-01-11T01:36:39.407Z,77.18
2023-01-11T01:39:42.071Z,76.65
2023-01-11T01:42:44.580Z,76.74
2023-01-11T01:45:50.083Z,75.24
2023-01-11T01:49:09.526Z,76.40
2023-01-11T01:52:14.319Z,75.56
2023-01-11T01:55:23.746Z,75.36
2023-01-11T01:58:34.672Z,74.50
2023-01-11T02:01:49.359Z,74.09
2023-01-11T02:04:53.438Z,74.11
2023-01-11T02:08:00.342Z,74.04
2023-01-11T02:11:24.619Z,73.78
2023-01-11T02:14:28.303Z,74.26
2023-01-11T02:17:33.656Z,73.30
2023-01-11T02:20:38.944Z,72.65
2023-01-11T02:24:09.438Z,72.65
2023-01-11T02:27:26.981Z,72.77
2023-01-11T02:30:37.034Z,73.39
2023-01-11T02:34:05.523Z,72.65
2023-01-11T02:37:37.174Z,73.06
2023-01-11T02:40:45.540Z,72.34
2023-01-11T02:44:24.733Z,72.73
2023-01-11T02:48:00.905Z,73.28
2023-01-11T02:51:18.655Z,73.26
2023-01-11T02:54:24.322Z,73.21
2023-01-11T02:57:36.747Z,73.49
2023-01-11T03:00:40.943Z,72.98
2023-01-11T03:03:49.874Z,72.98
2023-01-11T03:07:08.999Z,72.73
2023-01-11T03:10:51.949Z,71.59
2023-01-11T03:13:55.701Z,72.56
2023-01-11T03:17:08.845Z,72.65
2023-01-11T03:20:35.952Z,72.42
2023-01-11T03:23:57.576Z,72.18
2023-01-11T03:27:35.259Z,72.47
2023-01-11T03:30:52.408Z,72.30
2023-01-11T03:34:00.165Z,72.71
2023-01-11T03:37:13.387Z,71.63
2023-01-11T03:40:41.865Z,73.24
2023-01-11T03:43:48.809Z,72.59
2023-01-11T03:46:56.014Z,73.08
2023-01-11T03:50:11.127Z,72.50
2023-01-11T03:53:19.745Z,72.47
2023-01-11T03:56:38.562Z,72.73
2023-01-11T03:59:46.770Z,73.37
2023-01-11T04:02:54.037Z,73.25
2023-01-11T04:06:06.617Z,72.89
2023-01-11T04:09:09.091Z,73.38
2023-01-11T04:12:12.149Z,74.37
2023-01-11T04:15:16.598Z,73.19
2023-01-11T04:18:19.566Z,74.06
2023-01-11T04:21:23.387Z,73.54
2023-01-11T04:24:28.258Z,73.31
2023-01-11T04:27:30.837Z,73.76
2023-01-11T04:30:33.869Z,73.95
2023-01-11T04:33:36.428Z,74.59
2023-01-11T04:36:38.918Z,74.13
2023-01-11T04:39:41.457Z,73.68
2023-01-11T04:42:52.991Z,72.81
2023-01-11T04:46:01.931Z,73.01
2023-01-11T04:49:04.494Z,73.37
2023-01-11T04:52:07.016Z,73.06
2023-01-11T04:55:09.605Z,73.94
2023-01-11T04:58:14.996Z,73.56
2023-01-11T05:01:19.752Z,73.24
2023-01-11T05:04:22.546Z,73.49
2023-01-11T05:07:27.891Z,73.25
2023-01-11T05:10:32.389Z,72.66
2023-01-11T05:13:45.370Z,73.56
2023-01-11T05:16:47.930Z,73.55
2023-01-11T05:19:57.544Z,73.16
2023-01-11T05:23:00.094Z,73.01
2023-01-11T05:26:05.338Z,72.74
2023-01-11T05:29:15.535Z,73.05
2023-01-11T05:32:21.292Z,72.50
2023-01-11T05:35:23.847Z,73.02
2023-01-11T05:38:26.688Z,72.61
2023-01-11T05:41:30.433Z,73.19
2023-01-11T05:44:51.513Z,73.88
2023-01-11T05:47:55.543Z,74.70
2023-01-11T05:51:01.344Z,74.39
2023-01-11T05:54:17.623Z,74.43
2023-01-11T05:57:22.898Z,73.57
2023-01-11T06:00:31.999Z,73.88
2023-01-11T06:03:34.691Z,74.05
2023-01-11T06:06:37.357Z,74.07
2023-01-11T06:09:40.018Z,74.38
2023-01-11T06:12:42.595Z,74.20
2023-01-11T06:15:48.572Z,74.27
2023-01-11T06:18:56.128Z,74.26
2023-01-11T06:21:58.809Z,74.54
2023-01-11T06:25:01.408Z,74.34
2023-01-11T06:28:07.693Z,73.83
2023-01-11T06:31:10.434Z,73.75
2023-01-11T06:34:13.124Z,74.50
2023-01-11T06:37:28.899Z,76.07
2023-01-11T06:40:32.074Z,76.31
2023-01-11T06:43:35.490Z,78.22
2023-01-11T06:46:41.268Z,78.79
2023-01-11T06:49:43.866Z,79.47
2023-01-11T06:52:56.680Z,79.45
2023-01-11T06:56:00.062Z,80.28
2023-01-11T06:59:02.826Z,81.31
2023-01-11T07:02:11.578Z,83.31
2023-01-11T07:05:16.941Z,83.64
2023-01-11T07:08:26.703Z,84.03
2023-01-11T07:11:40.691Z,83.46
2023-01-11T07:14:44.995Z,83.65
2023-01-11T07:17:54.055Z,83.08
2023-01-11T07:21:01.084Z,82.82
2023-01-11T07:24:07.260Z,83.21
2023-01-11T07:27:14.757Z,83.31
2023-01-11T07:30:18.377Z,80.34
2023-01-11T07:33:24.216Z,77.93
2023-01-11T07:36:30.398Z,77.58
2023-01-11T07:39:43.197Z,77.26
2023-01-11T07:43:09.552Z,74.49
2023-01-11T07:46:13.086Z,74.00
2023-01-11T07:49:22.005Z,74.10
2023-01-11T07:52:31.220Z,74.20
2023-01-11T07:55:35.805Z,74.91
2023-01-11T07:58:38.430Z,73.43
2023-01-11T08:01:44.016Z,72.82
2023-01-11T08:04:51.574Z,73.22
2023-01-11T08:07:57.565Z,72.46
2023-01-11T08:11:25.734Z,71.21
2023-01-11T08:14:45.791Z,70.62
2023-01-11T08:17:54.051Z,70.64
2023-01-11T08:21:04.009Z,70.88
2023-01-11T08:24:10.041Z,70.79
2023-01-11T08:27:17.543Z,70.40
2023-01-11T08:30:24.456Z,70.92
2023-01-11T08:37:16.009Z,71.30
2023-01-11T08:40:31.145Z,70.54
2023-01-11T08:43:41.075Z,69.40
2023-01-11T08:46:54.151Z,69.04
2023-01-11T08:49:59.947Z,68.47
2023-01-11T08:53:16.369Z,68.70
2023-01-11T08:56:21.488Z,67.64
2023-01-11T08:59:28.957Z,67.39
2023-01-11T09:02:33.681Z,67.34
2023-01-11T09:05:42.706Z,68.59
2023-01-11T09:08:47.811Z,67.52
2023-01-11T09:11:58.674Z,67.64
2023-01-11T09:15:07.353Z,66.10
2023-01-11T09:18:24.950Z,67.04
2023-01-11T09:21:34.436Z,66.96
2023-01-11T09:24:38.843Z,66.18
2023-01-11T09:27:59.847Z,66.59
2023-01-11T09:31:05.930Z,65.84
2023-01-11T09:34:25.078Z,67.11
2023-01-11T09:37:45.139Z,66.98
2023-01-11T09:41:13.966Z,65.72
2023-01-11T09:44:30.110Z,65.70
2023-01-11T09:47:41.296Z,65.37
2023-01-11T09:50:48.015Z,67.21
2023-01-11T09:53:59.450Z,66.08
2023-01-11T09:57:16.289Z,65.57
2023-01-11T10:00:37.222Z,64.35
2023-01-11T10:04:16.455Z,65.85
2023-01-11T10:07:34.729Z,65.25
2023-01-11T10:18:34.081Z,64.27
2023-01-11T10:19:04.279Z,63.67
2023-01-11T10:22:33.244Z,64.22
2023-01-11T10:25:54.314Z,63.80
2023-01-11T10:29:25.763Z,64.08
2023-01-11T10:33:12.926Z,62.53
2023-01-11T10:37:06.933Z,62.73
2023-01-11T10:40:38.589Z,64.64
2023-01-11T10:43:50.857Z,64.77
2023-01-11T10:47:00.292Z,64.41
2023-01-11T10:50:23.953Z,64.17
2023-01-11T10:53:55.127Z,63.93
2023-01-11T10:57:05.664Z,64.00
2023-01-11T11:00:40.193Z,62.90
2023-01-11T11:04:10.849Z,61.88
2023-01-11T11:07:27.455Z,61.94
2023-01-11T11:11:00.777Z,62.79
2023-01-11T11:14:13.053Z,63.64
2023-01-11T11:17:29.000Z,61.77
2023-01-11T11:20:37.623Z,61.06
2023-01-11T11:24:00.949Z,60.11
2023-01-11T11:27:28.035Z,61.32
2023-01-11T11:30:42.607Z,60.85
2023-01-11T11:33:49.672Z,60.81
2023-01-11T11:37:18.825Z,61.88
2023-01-11T11:41:06.733Z,62.31
2023-01-11T11:44:25.031Z,62.08
2023-01-11T11:47:30.311Z,61.27
2023-01-11T11:50:46.419Z,62.55
2023-01-11T11:53:58.262Z,62.99
2023-01-11T11:57:36.426Z,62.87
2023-01-11T12:00:47.055Z,62.48
2023-01-11T12:03:57.478Z,62.03
2023-01-11T12:07:21.772Z,62.24
2023-01-11T12:10:31.570Z,61.40
2023-01-11T12:13:38.962Z,61.82
2023-01-11T12:16:44.447Z,61.84
2023-01-11T12:19:48.067Z,60.88
2023-01-11T12:23:09.578Z,61.13
2023-01-11T12:26:25.444Z,61.49
2023-01-11T12:29:51.533Z,62.82
2023-01-11T12:33:07.774Z,61.50
2023-01-11T12:36:18.755Z,61.18
2023-01-11T12:39:48.508Z,60.93
2023-01-11T12:43:06.347Z,62.34
2023-01-11T12:46:49.651Z,61.94
2023-01-11T12:50:12.032Z,62.79
2023-01-11T12:53:45.682Z,62.45
2023-01-11T12:57:09.322Z,63.03
2023-01-11T13:00:51.190Z,61.70
2023-01-11T13:04:15.429Z,61.72
2023-01-11T13:07:36.693Z,62.32
2023-01-11T13:11:37.928Z,61.04
2023-01-11T13:15:11.890Z,60.45
2023-01-11T13:18:26.932Z,60.84
2023-01-11T13:21:35.052Z,61.57
2023-01-11T13:24:38.579Z,59.13
2023-01-11T13:27:47.210Z,59.73
2023-01-11T13:30:53.561Z,59.70
2023-01-11T13:34:02.576Z,58.92
2023-01-11T13:37:21.329Z,58.94
2023-01-11T13:40:44.972Z,59.32
2023-01-11T13:43:56.997Z,58.86
2023-01-11T13:47:23.295Z,57.26
2023-01-11T13:50:40.234Z,59.17
2023-01-11T13:54:10.788Z,60.12
2023-01-11T13:57:22.103Z,58.76
2023-01-11T14:00:42.090Z,58.94
2023-01-11T14:03:51.661Z,59.75
2023-01-11T14:07:19.090Z,59.64
2023-01-11T14:10:32.023Z,60.91
2023-01-11T14:13:55.912Z,60.05
2023-01-11T14:16:58.683Z,62.57
2023-01-11T14:20:35.727Z,61.64
2023-01-11T14:23:41.218Z,62.81
2023-01-11T14:27:12.541Z,62.35
2023-01-11T14:30:41.227Z,62.09
2023-01-11T14:34:13.155Z,62.08
2023-01-11T14:37:56.928Z,62.52
2023-01-11T14:41:30.268Z,63.44
2023-01-11T14:44:54.067Z,64.91
2023-01-11T14:48:13.816Z,64.89
2023-01-11T14:51:43.371Z,66.34
2023-01-11T14:54:51.322Z,66.27
2023-01-11T14:58:04.324Z,67.08
2023-01-11T15:01:11.154Z,67.11
2023-01-11T15:04:22.554Z,68.03
2023-01-11T15:07:26.437Z,68.50
2023-01-11T15:10:28.934Z,68.80
2023-01-11T15:13:37.432Z,69.32
2023-01-11T15:17:00.240Z,70.40
2023-01-11T15:20:21.914Z,71.63
2023-01-11T15:23:25.385Z,70.71
2023-01-11T15:26:28.078Z,70.08
2023-01-11T15:29:33.925Z,69.05
2023-01-11T15:32:36.583Z,70.00
2023-01-11T15:35:40.348Z,69.34
2023-01-11T15:39:11.713Z,69.89
2023-01-11T15:42:17.348Z,69.44
2023-01-11T15:46:12.705Z,70.43
2023-01-11T15:49:53.804Z,70.13
2023-01-11T15:53:10.361Z,70.72
2023-01-11T15:56:19.000Z,71.77
2023-01-11T15:59:52.446Z,69.92
2023-01-11T16:03:35.284Z,70.20
2023-01-11T16:06:51.280Z,70.99
2023-01-11T16:10:02.931Z,72.17
2023-01-11T16:13:30.845Z,72.83
2023-01-11T16:16:40.245Z,74.35
2023-01-11T16:19:46.249Z,74.97
2023-01-11T16:22:58.324Z,76.33
2023-01-11T16:26:01.783Z,77.48
2023-01-11T16:29:12.317Z,77.89
2023-01-11T16:32:27.245Z,78.69
2023-01-11T16:35:29.978Z,80.53
2023-01-11T16:38:45.624Z,81.41
2023-01-11T16:42:00.773Z,82.85
2023-01-11T16:45:07.161Z,81.98
2023-01-11T16:48:24.545Z,80.56
2023-01-11T16:51:27.139Z,78.26
2023-01-11T16:54:37.664Z,78.25
2023-01-11T16:57:47.437Z,78.50
2023-01-11T17:00:58.957Z,79.06
2023-01-11T17:04:07.287Z,78.27
2023-01-11T17:07:23.605Z,78.73
2023-01-11T17:10:29.330Z,79.13
2023-01-11T17:14:13.049Z,78.82
2023-01-11T17:17:16.267Z,78.22
2023-01-11T17:20:25.138Z,76.85
2023-01-11T17:23:27.864Z,76.52
2023-01-11T17:26:38.039Z,77.07
2023-01-11T17:29:42.402Z,77.26
2023-01-11T17:32:52.664Z,76.26
2023-01-11T17:35:55.735Z,75.82
2023-01-11T17:38:59.073Z,76.00
2023-01-11T17:42:23.118Z,76.55
2023-01-11T17:45:26.225Z,76.85
2023-01-11T17:48:29.846Z,77.53
2023-01-11T17:51:34.000Z,78.69
2023-01-11T17:54:36.800Z,78.56
2023-01-11T17:57:39.647Z,78.11
2023-01-11T18:00:44.659Z,79.52
2023-01-11T18:03:58.155Z,78.93
2023-01-11T18:07:18.545Z,78.92
2023-01-11T18:10:28.831Z,80.52
2023-01-11T18:13:35.350Z,81.62
2023-01-11T18:16:54.911Z,82.10
2023-01-11T18:19:58.764Z,81.89
2023-01-11T18:23:17.741Z,81.57
2023-01-11T18:26:29.603Z,80.20
2023-01-11T18:29:38.157Z,78.98
2023-01-11T18:32:42.516Z,77.96
2023-01-11T18:35:49.550Z,76.17
2023-01-11T18:38:52.310Z,76.49
2023-01-11T18:42:09.363Z,76.72
2023-01-11T18:45:12.418Z,75.76
2023-01-11T18:48:15.683Z,76.21
2023-01-11T18:51:33.769Z,74.84
2023-01-11T18:54:37.209Z,75.25
2023-01-11T18:57:39.862Z,75.47
2023-01-11T19:00:42.944Z,75.97
2023-01-11T19:03:49.051Z,76.36
2023-01-11T19:06:52.534Z,76.54
2023-01-11T19:09:55.310Z,76.44
2023-01-11T19:13:01.657Z,76.34
2023-01-11T19:16:07.763Z,75.23
2023-01-11T19:19:12.690Z,74.88
2023-01-11T19:22:21.136Z,75.97
2023-01-11T19:25:28.639Z,76.26
2023-01-11T19:28:34.557Z,75.71
2023-01-11T19:31:43.728Z,77.09
2023-01-11T19:34:46.594Z,77.23
2023-01-11T19:37:50.247Z,78.94
2023-01-11T19:40:52.894Z,79.96
2023-01-11T19:43:55.673Z,81.59
2023-01-11T19:47:10.371Z,83.27
2023-01-11T19:50:17.040Z,85.51
2023-01-11T19:53:19.859Z,85.98
2023-01-11T19:56:22.449Z,87.09
2023-01-11T19:59:25.298Z,87.95
2023-01-11T20:02:27.861Z,88.25
2023-01-11T20:05:32.729Z,88.09
2023-01-11T20:08:40.657Z,87.66
2023-01-11T20:11:43.269Z,87.97
2023-01-11T20:14:46.462Z,88.24
2023-01-11T20:17:49.192Z,88.12
2023-01-11T20:20:56.614Z,88.85
2023-01-11T20:24:02.547Z,89.25
2023-01-11T20:27:05.128Z,89.55
2023-01-11T20:30:14.133Z,91.06
2023-01-11T20:33:19.564Z,91.42
2023-01-11T20:36:24.021Z,90.84
2023-01-11T20:39:27.092Z,90.67
2023-01-11T20:42:34.220Z,91.24
2023-01-11T20:45:39.625Z,91.57
2023-01-11T20:48:51.224Z,91.96
2023-01-11T20:51:53.942Z,91.28
2023-01-11T20:54:59.306Z,90.70
2023-01-11T20:58:01.896Z,90.82
2023-01-11T21:01:07.331Z,91.01
2023-01-11T21:04:13.516Z,89.58
2023-01-11T21:07:16.154Z,89.99
2023-01-11T21:10:18.829Z,91.21
2023-01-11T21:13:21.423Z,92.37
2023-01-11T21:16:30.939Z,90.52
2023-01-11T21:19:33.504Z,90.30
2023-01-11T21:22:36.163Z,89.75
2023-01-11T21:25:38.767Z,89.67
2023-01-11T21:28:41.968Z,88.41
2023-01-11T21:31:44.682Z,89.22
2023-01-11T21:34:47.262Z,89.91
2023-01-11T21:37:50.082Z,91.07
2023-01-11T21:40:55.640Z,91.61
2023-01-11T21:43:58.211Z,92.55
2023-01-11T21:47:07.455Z,92.25
2023-01-11T21:50:13.216Z,92.67
2023-01-11T21:53:21.962Z,92.45
2023-01-11T21:56:25.099Z,92.35
2023-01-11T21:59:28.110Z,92.74
2023-01-11T22:02:30.801Z,93.00
2023-01-11T22:05:33.393Z,93.55
2023-01-11T22:08:36.868Z,93.54
2023-01-11T22:11:39.905Z,93.19
2023-01-11T22:14:43.718Z,93.05
2023-01-11T22:17:46.388Z,93.32
2023-01-11T22:20:49.645Z,93.05
2023-01-11T22:23:59.077Z,93.65
2023-01-11T22:27:01.701Z,93.41
2023-01-11T22:30:16.129Z,93.85
2023-01-11T22:33:29.970Z,93.57
2023-01-11T22:36:32.491Z,93.72
2023-01-11T22:39:37.917Z,93.92
2023-01-11T22:42:43.025Z,94.19
2023-01-11T22:45:56.659Z,93.74
2023-01-11T22:49:02.204Z,93.81
2023-01-11T22:52:06.734Z,93.60
2023-01-11T22:55:10.202Z,93.89
2023-01-11T22:58:12.826Z,93.35
2023-01-11T23:01:18.684Z,92.63
2023-01-11T23:04:23.778Z,92.36
2023-01-11T23:07:27.471Z,90.82
2023-01-11T23:10:30.074Z,90.51
2023-01-11T23:13:51.361Z,91.55
2023-01-11T23:17:09.441Z,89.93
2023-01-11T23:20:12.399Z,89.69
2023-01-11T23:23:15.018Z,89.75
2023-01-11T23:26:18.228Z,89.83
2023-01-11T23:29:24.837Z,89.45
2023-01-11T23:32:28.992Z,88.82
2023-01-11T23:35:31.644Z,88.86
2023-01-11T23:38:34.148Z,89.05
2023-01-11T23:41:55.327Z,88.78
2023-01-11T23:44:58.147Z,88.79
2023-01-11T23:48:04.454Z,87.75
2023-01-11T23:51:07.026Z,87.55
2023-01-11T23:54:13.119Z,87.83
2023-01-11T23:57:16.892Z,87.75
